createdAt,value
2022-11-14T04:43:06.567Z,4.92
2022-11-14T04:46:28.053Z,4.92
2022-11-14T04:49:48.985Z,4.52
2022-11-14T04:53:09.594Z,4.60
2022-11-14T04:56:30.531Z,4.69
2022-11-14T04:59:51.515Z,4.81
2022-11-14T05:03:12.380Z,5.04
2022-11-14T05:06:33.337Z,5.03
2022-11-14T05:09:55.016Z,5.08
2022-11-14T05:13:15.934Z,5.11
2022-11-14T05:16:36.895Z,5.12
2022-11-14T05:19:58.821Z,5.12
2022-11-14T05:23:23.123Z,5.12
2022-11-14T05:26:43.989Z,5.00
2022-11-14T05:30:05.323Z,5.04
2022-11-14T05:33:26.237Z,5.11
2022-11-14T05:36:46.841Z,5.15
2022-11-14T05:40:08.486Z,5.08
2022-11-14T05:43:29.929Z,5.11
2022-11-14T05:46:50.380Z,5.25
2022-11-14T05:50:11.682Z,5.21
2022-11-14T05:53:33.461Z,5.22
2022-11-14T05:56:54.533Z,5.23
2022-11-14T06:00:15.928Z,5.26
2022-11-14T06:03:39.674Z,5.35
2022-11-14T06:07:00.808Z,5.29
2022-11-14T06:10:23.113Z,5.28
2022-11-14T06:13:44.667Z,5.36
2022-11-14T06:17:05.188Z,5.36
2022-11-14T06:20:27.712Z,5.44
2022-11-14T06:23:49.297Z,5.49
2022-11-14T06:27:10.093Z,5.52
2022-11-14T06:30:30.968Z,5.59
2022-11-14T06:33:51.798Z,5.56
2022-11-14T06:37:12.668Z,5.61
2022-11-14T06:40:33.832Z,5.62
2022-11-14T06:43:54.798Z,5.73
2022-11-14T06:47:15.327Z,5.66
2022-11-14T06:50:35.851Z,5.72
2022-11-14T06:53:57.852Z,5.73
2022-11-14T06:57:18.821Z,5.79
2022-11-14T07:00:39.902Z,5.99
2022-11-14T07:04:02.329Z,6.07
2022-11-14T07:07:23.525Z,6.24
2022-11-14T07:10:45.418Z,6.39
2022-11-14T07:14:06.779Z,6.38
2022-11-14T07:17:31.251Z,6.47
2022-11-14T07:21:05.812Z,6.47
2022-11-14T07:24:26.821Z,6.55
2022-11-14T07:27:47.577Z,6.75
2022-11-14T07:31:12.410Z,6.93
2022-11-14T07:34:33.342Z,7.02
2022-11-14T07:38:01.068Z,7.05
2022-11-14T07:41:22.886Z,7.19
2022-11-14T07:44:43.572Z,7.29
2022-11-14T07:48:04.654Z,7.37
2022-11-14T07:51:25.840Z,7.46
2022-11-14T07:54:46.663Z,7.56
2022-11-14T07:58:07.340Z,7.68
2022-11-14T08:01:28.119Z,7.78
2022-11-14T08:04:49.248Z,7.72
2022-11-14T08:08:10.341Z,7.90
2022-11-14T08:11:49.979Z,7.88
2022-11-14T08:15:13.440Z,7.95
2022-11-14T08:18:34.665Z,7.98
2022-11-14T08:21:55.355Z,8.16
2022-11-14T08:25:16.524Z,8.49
2022-11-14T08:28:37.713Z,8.49
2022-11-14T08:32:00.108Z,8.83
2022-11-14T08:35:22.180Z,8.77
2022-11-14T08:38:42.819Z,8.67
2022-11-14T08:42:03.863Z,8.64
2022-11-14T08:45:24.648Z,8.71
2022-11-14T08:48:45.351Z,8.65
2022-11-14T08:52:06.163Z,8.66
2022-11-14T08:55:27.197Z,8.73
2022-11-14T08:58:48.593Z,8.81
2022-11-14T09:02:13.590Z,8.80
2022-11-14T09:05:34.834Z,9.02
2022-11-14T09:08:56.052Z,9.03
2022-11-14T09:12:17.581Z,9.05
2022-11-14T09:15:38.374Z,9.07
2022-11-14T09:18:59.901Z,9.18
2022-11-14T09:22:21.150Z,9.22
2022-11-14T09:25:42.419Z,9.26
2022-11-14T09:29:05.528Z,9.34
2022-11-14T09:32:26.597Z,9.36
2022-11-14T09:35:47.371Z,9.47
2022-11-14T09:39:07.965Z,9.59
2022-11-14T09:42:45.742Z,9.68
2022-11-14T09:46:19.324Z,9.70
2022-11-14T09:49:45.659Z,9.83
2022-11-14T09:53:30.772Z,9.93
2022-11-14T09:56:51.889Z,10.10
2022-11-14T10:00:18.838Z,10.11
2022-11-14T10:04:03.964Z,10.16
2022-11-14T10:08:06.916Z,10.21
2022-11-14T10:11:39.607Z,10.36
2022-11-14T10:15:45.478Z,10.29
2022-11-14T10:19:36.413Z,10.24
2022-11-14T10:23:14.568Z,10.36
2022-11-14T10:26:45.081Z,10.44
2022-11-14T10:30:12.609Z,10.58
2022-11-14T10:34:06.411Z,10.62
2022-11-14T10:37:41.828Z,10.66
2022-11-14T10:41:06.578Z,10.79
2022-11-14T10:44:42.256Z,10.90
2022-11-14T10:48:37.971Z,10.95
2022-11-14T10:52:07.446Z,11.00
2022-11-14T10:55:57.281Z,11.10
2022-11-14T10:59:09.837Z,11.17
2022-11-14T11:02:51.978Z,11.14
2022-11-14T11:06:30.333Z,11.43
2022-11-14T11:10:18.060Z,11.47
2022-11-14T11:13:54.968Z,11.56
2022-11-14T11:17:20.707Z,11.57
2022-11-14T11:20:42.296Z,11.65
2022-11-14T11:24:06.005Z,11.80
2022-11-14T11:27:29.100Z,11.76
2022-11-14T11:31:02.534Z,11.88
2022-11-14T11:34:30.946Z,12.00
2022-11-14T11:37:56.114Z,12.08
2022-11-14T11:45:17.551Z,12.15
2022-11-14T11:48:39.450Z,12.26
2022-11-14T11:52:12.229Z,12.39
2022-11-14T11:55:36.037Z,12.47
2022-11-14T11:59:22.502Z,12.56
2022-11-14T12:02:50.168Z,12.78
2022-11-14T12:06:18.152Z,12.73
2022-11-14T12:10:09.389Z,12.77
2022-11-14T12:13:40.360Z,12.92
2022-11-14T12:17:38.886Z,13.00
2022-11-14T12:21:27.632Z,13.10
2022-11-14T12:25:26.021Z,13.15
2022-11-14T12:29:11.132Z,13.22
2022-11-14T12:32:41.384Z,13.26
2022-11-14T12:36:06.239Z,13.28
2022-11-14T12:39:30.876Z,13.34
2022-11-14T12:42:52.363Z,13.59
2022-11-14T12:46:13.795Z,13.65
2022-11-14T12:49:38.896Z,13.60
2022-11-14T12:53:00.063Z,13.38
2022-11-14T12:56:48.698Z,13.48
2022-11-14T13:00:14.602Z,13.64
2022-11-14T13:03:59.294Z,13.73
2022-11-14T13:07:44.840Z,13.75
2022-11-14T13:11:50.889Z,13.64
2022-11-14T13:15:48.853Z,13.68
2022-11-14T13:19:28.822Z,13.68
2022-11-14T13:22:49.795Z,13.67
2022-11-14T13:26:10.368Z,13.61
2022-11-14T13:29:47.528Z,13.70
2022-11-14T13:33:08.585Z,13.62
2022-11-14T13:36:54.528Z,13.48
2022-11-14T13:40:22.747Z,13.42
2022-11-14T13:44:14.417Z,13.41
2022-11-14T13:47:58.886Z,13.41
2022-11-14T13:51:42.181Z,13.48
2022-11-14T13:55:02.792Z,13.36
2022-11-14T13:58:54.642Z,13.29
2022-11-14T14:03:00.750Z,13.24
2022-11-14T14:06:30.857Z,13.06
2022-11-14T14:10:10.697Z,13.09
2022-11-14T14:13:40.437Z,13.00
2022-11-14T14:17:22.987Z,12.89
2022-11-14T14:20:59.438Z,12.86
2022-11-14T14:24:49.966Z,12.87
2022-11-14T14:28:53.329Z,12.83
2022-11-14T14:32:17.142Z,12.67
2022-11-14T14:35:42.316Z,12.56
2022-11-14T14:39:16.667Z,12.39
2022-11-14T14:42:45.741Z,12.26
2022-11-14T14:46:06.620Z,12.13
2022-11-14T14:49:32.214Z,11.97
2022-11-14T14:53:01.812Z,11.86
2022-11-14T14:56:27.965Z,11.79
2022-11-14T15:00:07.620Z,11.73
2022-11-14T15:03:37.373Z,11.61
2022-11-14T15:07:00.273Z,11.47
2022-11-14T15:10:24.885Z,11.35
2022-11-14T15:13:46.353Z,11.26
2022-11-14T15:17:07.542Z,11.21
2022-11-14T15:20:30.415Z,11.02
2022-11-14T15:24:01.683Z,10.92
2022-11-14T15:27:22.640Z,10.87
2022-11-14T15:30:57.013Z,10.76
2022-11-14T15:34:37.484Z,10.66
2022-11-14T15:42:21.763Z,10.46
2022-11-14T15:45:42.954Z,10.38
2022-11-14T15:49:18.845Z,10.16
2022-11-14T15:53:06.379Z,10.26
2022-11-14T15:56:28.851Z,10.11
2022-11-14T15:59:49.875Z,9.94
2022-11-14T16:03:12.524Z,9.84
2022-11-14T16:06:33.560Z,9.74
2022-11-14T16:09:57.463Z,9.55
2022-11-14T16:13:18.432Z,9.51
2022-11-14T16:16:39.805Z,9.54
2022-11-14T16:20:00.952Z,9.56
2022-11-14T16:23:22.021Z,9.52
2022-11-14T16:26:43.051Z,9.55
2022-11-14T16:30:04.643Z,9.67
2022-11-14T16:33:25.358Z,9.63
2022-11-14T16:36:46.240Z,9.61
2022-11-14T16:40:19.244Z,9.51
2022-11-14T16:43:39.852Z,9.37
2022-11-14T16:47:00.728Z,9.26
2022-11-14T16:50:22.023Z,9.35
2022-11-14T16:53:42.724Z,9.12
